createdAt,value
2024-03-29T00:00:03.174Z,7.14
2024-03-29T00:00:34.581Z,7.13
2024-03-29T00:01:05.383Z,7.13
2024-03-29T00:01:36.164Z,7.13
2024-03-29T00:02:06.954Z,7.13
2024-03-29T00:02:37.741Z,7.13
2024-03-29T00:03:09.222Z,7.12
2024-03-29T00:03:40.021Z,7.11
2024-03-29T00:04:10.825Z,7.11
2024-03-29T00:04:41.624Z,7.11
2024-03-29T00:05:12.419Z,7.10
2024-03-29T00:05:43.222Z,7.09
2024-03-29T00:06:14.031Z,7.08
2024-03-29T00:06:44.812Z,7.07
2024-03-29T00:07:15.625Z,7.07
2024-03-29T00:07:46.526Z,7.07
2024-03-29T00:08:17.315Z,7.06
2024-03-29T00:08:48.109Z,7.05
2024-03-29T00:09:18.942Z,7.05
2024-03-29T00:09:49.729Z,7.05
2024-03-29T00:10:20.514Z,7.05
2024-03-29T00:10:51.334Z,7.05
2024-03-29T00:11:22.125Z,7.05
2024-03-29T00:11:52.919Z,7.05
2024-03-29T00:12:23.700Z,7.05
2024-03-29T00:12:54.484Z,7.05
2024-03-29T00:13:25.280Z,7.05
2024-03-29T00:13:56.105Z,7.05
2024-03-29T00:14:26.915Z,7.05
2024-03-29T00:14:57.704Z,7.05
2024-03-29T00:15:29.103Z,7.06
2024-03-29T00:15:59.895Z,7.06
2024-03-29T00:16:30.683Z,7.06
2024-03-29T00:17:04.404Z,7.07
2024-03-29T00:17:35.212Z,7.07
2024-03-29T00:18:06.611Z,7.06
2024-03-29T00:18:37.489Z,7.05
2024-03-29T00:19:08.302Z,7.05
2024-03-29T00:19:39.102Z,7.05
2024-03-29T00:20:10.211Z,7.06
2024-03-29T00:20:41.000Z,7.06
2024-03-29T00:21:11.823Z,7.06
2024-03-29T00:21:42.608Z,7.05
2024-03-29T00:22:13.430Z,7.05
2024-03-29T00:22:44.215Z,7.05
2024-03-29T00:23:15.022Z,7.05
2024-03-29T00:23:46.667Z,7.06
2024-03-29T00:24:17.465Z,7.07
2024-03-29T00:24:48.328Z,7.07
2024-03-29T00:25:19.132Z,7.07
2024-03-29T00:25:49.921Z,7.06
2024-03-29T00:26:20.708Z,7.06
2024-03-29T00:26:51.502Z,7.07
2024-03-29T00:27:25.330Z,7.07
2024-03-29T00:27:56.348Z,7.07
2024-03-29T00:28:27.260Z,7.08
2024-03-29T00:28:58.055Z,7.08
2024-03-29T00:29:28.859Z,7.09
2024-03-29T00:29:59.696Z,7.10
2024-03-29T00:30:30.497Z,7.11
2024-03-29T00:31:01.326Z,7.12
2024-03-29T00:31:32.152Z,7.13
2024-03-29T00:32:02.946Z,7.14
2024-03-29T00:32:33.786Z,7.14
2024-03-29T00:33:04.844Z,7.14
2024-03-29T00:33:35.670Z,7.15
2024-03-29T00:34:06.496Z,7.15
2024-03-29T00:34:37.274Z,7.15
2024-03-29T00:35:08.245Z,7.16
2024-03-29T00:35:39.061Z,7.16
2024-03-29T00:36:09.889Z,7.17
2024-03-29T00:36:40.844Z,7.18
2024-03-29T00:37:11.956Z,7.18
2024-03-29T00:37:42.742Z,7.18
2024-03-29T00:38:14.337Z,7.19
2024-03-29T00:38:45.121Z,7.19
2024-03-29T00:39:15.962Z,7.20
2024-03-29T00:39:46.798Z,7.22
2024-03-29T00:40:17.591Z,7.23
2024-03-29T00:40:48.382Z,7.24
2024-03-29T00:41:19.171Z,7.24
2024-03-29T00:41:49.969Z,7.25
2024-03-29T00:42:21.078Z,7.25
2024-03-29T00:42:51.862Z,7.25
2024-03-29T00:43:22.649Z,7.26
2024-03-29T00:43:53.441Z,7.27
2024-03-29T00:44:24.229Z,7.27
2024-03-29T00:44:55.011Z,7.28
2024-03-29T00:45:32.728Z,7.28
2024-03-29T00:46:04.071Z,7.29
2024-03-29T00:46:35.005Z,7.30
2024-03-29T00:47:05.797Z,7.30
2024-03-29T00:47:36.875Z,7.31
2024-03-29T00:48:07.671Z,7.32
2024-03-29T00:48:38.455Z,7.32
2024-03-29T00:49:09.231Z,7.32
2024-03-29T00:49:40.042Z,7.32
2024-03-29T00:50:10.823Z,7.32
2024-03-29T00:50:41.643Z,7.33
2024-03-29T00:51:12.563Z,7.33
2024-03-29T00:51:43.347Z,7.34
2024-03-29T00:52:14.121Z,7.35
2024-03-29T00:52:45.399Z,7.35
2024-03-29T00:53:16.197Z,7.36
2024-03-29T00:53:47.523Z,7.36
2024-03-29T00:54:19.064Z,7.36
2024-03-29T00:54:50.383Z,7.36
2024-03-29T00:55:21.188Z,7.36
2024-03-29T00:55:52.191Z,7.37
2024-03-29T00:56:22.982Z,7.36
2024-03-29T00:56:53.770Z,7.36
2024-03-29T00:57:24.634Z,7.36
2024-03-29T00:57:55.729Z,7.36
2024-03-29T00:58:26.560Z,7.36
2024-03-29T00:58:57.473Z,7.36
2024-03-29T00:59:28.290Z,7.36
2024-03-29T00:59:59.072Z,7.36
2024-03-29T01:00:29.864Z,7.36
2024-03-29T01:01:00.678Z,7.36
2024-03-29T01:01:31.470Z,7.36
2024-03-29T01:02:02.297Z,7.37
2024-03-29T01:02:33.102Z,7.37
2024-03-29T01:03:03.953Z,7.37
2024-03-29T01:03:34.736Z,7.38
2024-03-29T01:04:06.222Z,7.37
2024-03-29T01:04:38.051Z,7.37
2024-03-29T01:05:08.942Z,7.36
2024-03-29T01:05:39.723Z,7.36
2024-03-29T01:06:10.520Z,7.37
2024-03-29T01:06:41.308Z,7.37
2024-03-29T01:07:12.102Z,7.37
2024-03-29T01:07:42.936Z,7.36
2024-03-29T01:08:13.789Z,7.35
2024-03-29T01:08:44.578Z,7.35
2024-03-29T01:09:15.371Z,7.34
2024-03-29T01:09:46.152Z,7.34
2024-03-29T01:10:16.937Z,7.34
2024-03-29T01:10:47.827Z,7.34
2024-03-29T01:11:18.612Z,7.34
2024-03-29T01:11:50.603Z,7.34
2024-03-29T01:12:21.404Z,7.34
2024-03-29T01:12:52.198Z,7.33
2024-03-29T01:13:23.011Z,7.32
2024-03-29T01:13:53.805Z,7.32
2024-03-29T01:14:24.591Z,7.32
2024-03-29T01:14:55.424Z,7.31
2024-03-29T01:15:26.219Z,7.31
2024-03-29T01:15:57.008Z,7.30
2024-03-29T01:16:27.800Z,7.29
2024-03-29T01:16:58.592Z,7.29
2024-03-29T01:17:29.462Z,7.28
2024-03-29T01:18:00.288Z,7.28
2024-03-29T01:18:31.922Z,7.28
2024-03-29T01:19:03.158Z,7.28
2024-03-29T01:19:33.940Z,7.27
2024-03-29T01:20:05.205Z,7.27
2024-03-29T01:20:36.028Z,7.27
2024-03-29T01:21:06.816Z,7.26
2024-03-29T01:21:37.633Z,7.25
2024-03-29T01:22:08.409Z,7.25
2024-03-29T01:22:39.219Z,7.25
2024-03-29T01:23:10.003Z,7.25
2024-03-29T01:23:40.788Z,7.25
2024-03-29T01:24:11.686Z,7.24
2024-03-29T01:24:42.491Z,7.24
2024-03-29T01:25:14.422Z,7.24
2024-03-29T01:25:45.227Z,7.24
2024-03-29T01:26:17.316Z,7.24
2024-03-29T01:26:48.102Z,7.23
2024-03-29T01:27:18.916Z,7.23
2024-03-29T01:27:49.713Z,7.23
2024-03-29T01:28:20.503Z,7.23
2024-03-29T01:28:51.290Z,7.23
2024-03-29T01:29:22.126Z,7.23
2024-03-29T01:29:52.919Z,7.24
2024-03-29T01:30:23.778Z,7.24
2024-03-29T01:30:58.576Z,7.24
2024-03-29T01:31:29.375Z,7.24
2024-03-29T01:32:00.234Z,7.24
2024-03-29T01:32:31.048Z,7.24
2024-03-29T01:33:01.871Z,7.25
2024-03-29T01:33:36.550Z,7.25
2024-03-29T01:34:07.352Z,7.25
2024-03-29T01:34:39.283Z,7.25
2024-03-29T01:35:10.065Z,7.25
2024-03-29T01:35:40.849Z,7.25
2024-03-29T01:36:11.641Z,7.25
2024-03-29T01:36:42.555Z,7.25
2024-03-29T01:37:13.466Z,7.26
2024-03-29T01:37:44.279Z,7.26
2024-03-29T01:38:15.062Z,7.26
2024-03-29T01:38:48.671Z,7.25
2024-03-29T01:39:21.296Z,7.25
2024-03-29T01:39:52.080Z,7.25
2024-03-29T01:40:22.857Z,7.25
2024-03-29T01:40:53.643Z,7.25
2024-03-29T01:41:26.865Z,7.25
2024-03-29T01:41:57.651Z,7.25
2024-03-29T01:42:28.437Z,7.25
2024-03-29T01:43:01.013Z,7.25
2024-03-29T01:43:31.806Z,7.25
2024-03-29T01:44:02.616Z,7.25
2024-03-29T01:44:33.435Z,7.25
2024-03-29T01:45:04.926Z,7.25
2024-03-29T01:45:37.241Z,7.25
2024-03-29T01:46:08.132Z,7.25
2024-03-29T01:46:38.932Z,7.24
2024-03-29T01:47:09.730Z,7.25
2024-03-29T01:47:40.521Z,7.25
2024-03-29T01:48:11.407Z,7.25
2024-03-29T01:48:42.252Z,7.25
2024-03-29T01:49:13.132Z,7.25
2024-03-29T01:49:45.107Z,7.25
2024-03-29T01:50:15.921Z,7.24
2024-03-29T01:50:47.388Z,7.24
2024-03-29T01:51:18.215Z,7.24
2024-03-29T01:51:49.074Z,7.24
2024-03-29T01:52:19.858Z,7.24
2024-03-29T01:52:50.638Z,7.23
2024-03-29T01:53:21.438Z,7.23
2024-03-29T01:53:53.359Z,7.22
2024-03-29T01:54:24.152Z,7.23
2024-03-29T01:54:54.966Z,7.23
2024-03-29T01:55:25.763Z,7.22
2024-03-29T01:55:56.544Z,7.22
2024-03-29T01:56:27.355Z,7.22
2024-03-29T01:56:58.632Z,7.22
2024-03-29T01:57:29.532Z,7.22
2024-03-29T01:58:00.349Z,7.22
2024-03-29T01:58:31.167Z,7.22
2024-03-29T01:59:03.608Z,7.21
2024-03-29T01:59:34.452Z,7.21
2024-03-29T02:00:06.263Z,7.21
2024-03-29T02:00:41.709Z,7.21
2024-03-29T02:01:12.548Z,7.20
2024-03-29T02:01:43.460Z,7.20
2024-03-29T02:02:14.258Z,7.20
2024-03-29T02:02:45.039Z,7.20
2024-03-29T02:03:16.062Z,7.20
2024-03-29T02:03:47.342Z,7.19
2024-03-29T02:04:18.157Z,7.19
2024-03-29T02:04:48.947Z,7.19
2024-03-29T02:05:19.737Z,7.19
2024-03-29T02:05:50.585Z,7.18
2024-03-29T02:06:21.378Z,7.18
2024-03-29T02:06:52.197Z,7.18
2024-03-29T02:07:23.181Z,7.18
2024-03-29T02:07:54.537Z,7.17
2024-03-29T02:08:25.322Z,7.17
2024-03-29T02:08:56.112Z,7.16
2024-03-29T02:09:26.902Z,7.16
2024-03-29T02:09:57.745Z,7.16
2024-03-29T02:10:28.546Z,7.15
2024-03-29T02:10:59.390Z,7.14
2024-03-29T02:11:30.177Z,7.14
2024-03-29T02:12:00.969Z,7.13
2024-03-29T02:12:31.761Z,7.13
2024-03-29T02:13:02.981Z,7.12
2024-03-29T02:13:33.868Z,7.11
2024-03-29T02:14:06.354Z,7.11
2024-03-29T02:14:39.199Z,7.10
2024-03-29T02:15:15.357Z,7.09
2024-03-29T02:15:46.165Z,7.09
2024-03-29T02:16:17.012Z,7.09
2024-03-29T02:16:47.797Z,7.08
2024-03-29T02:17:18.588Z,7.07
2024-03-29T02:17:51.204Z,7.07
2024-03-29T02:18:22.717Z,7.06
2024-03-29T02:18:53.613Z,7.05
2024-03-29T02:19:24.465Z,7.05
2024-03-29T02:19:55.251Z,7.04
2024-03-29T02:20:33.847Z,7.03
2024-03-29T02:21:10.219Z,7.03
2024-03-29T02:21:42.888Z,7.02
2024-03-29T02:22:15.162Z,7.01
2024-03-29T02:22:51.474Z,7.01
2024-03-29T02:23:29.091Z,7.00
2024-03-29T02:24:09.000Z,7.00
2024-03-29T02:24:39.788Z,6.99
2024-03-29T02:25:10.712Z,6.99
2024-03-29T02:25:41.508Z,6.99
2024-03-29T02:26:12.361Z,7.00
2024-03-29T02:26:43.219Z,6.99
2024-03-29T02:27:14.056Z,6.99
2024-03-29T02:27:45.100Z,6.99
2024-03-29T02:28:15.885Z,7.00
2024-03-29T02:28:46.674Z,7.00
2024-03-29T02:29:17.495Z,7.00
2024-03-29T02:29:48.282Z,7.00
2024-03-29T02:30:19.111Z,7.00
2024-03-29T02:30:49.972Z,7.00
2024-03-29T02:31:20.759Z,7.00
2024-03-29T02:31:51.540Z,7.00
2024-03-29T02:32:22.338Z,7.00
2024-03-29T02:32:53.233Z,7.00
2024-03-29T02:33:24.046Z,7.00
2024-03-29T02:33:55.835Z,7.00
2024-03-29T02:34:27.154Z,6.99
2024-03-29T02:34:57.943Z,6.99
2024-03-29T02:35:29.122Z,6.99
2024-03-29T02:35:59.951Z,6.98
2024-03-29T02:36:30.760Z,6.98
2024-03-29T02:37:01.923Z,6.97
2024-03-29T02:37:33.035Z,6.97
2024-03-29T02:38:03.974Z,6.97
2024-03-29T02:38:34.764Z,6.96
2024-03-29T02:39:05.555Z,6.96
2024-03-29T02:39:36.343Z,6.95
2024-03-29T02:40:08.875Z,6.95
2024-03-29T02:40:40.076Z,6.95
2024-03-29T02:41:10.851Z,6.95
2024-03-29T02:41:41.859Z,6.95
2024-03-29T02:42:12.648Z,6.95
2024-03-29T02:42:43.448Z,6.95
2024-03-29T02:43:14.232Z,6.94
2024-03-29T02:43:45.020Z,6.94
2024-03-29T02:44:15.990Z,6.93
2024-03-29T02:44:46.865Z,6.93
2024-03-29T02:45:17.692Z,6.93
2024-03-29T02:45:48.492Z,6.93
2024-03-29T02:46:19.282Z,6.93
2024-03-29T02:46:50.074Z,6.93
2024-03-29T02:47:20.877Z,6.93
2024-03-29T02:47:51.678Z,6.93
2024-03-29T02:48:22.514Z,6.93
2024-03-29T02:48:53.316Z,6.92
2024-03-29T02:49:24.095Z,6.92
2024-03-29T02:49:54.894Z,6.92
2024-03-29T02:50:25.705Z,6.91
2024-03-29T02:50:56.489Z,6.91
2024-03-29T02:51:27.281Z,6.91
2024-03-29T02:51:58.066Z,6.91
2024-03-29T02:52:29.490Z,6.91
2024-03-29T02:53:00.289Z,6.90
2024-03-29T02:53:31.120Z,6.90
2024-03-29T02:54:02.001Z,6.90
2024-03-29T02:54:33.264Z,6.89
2024-03-29T02:55:04.391Z,6.89
2024-03-29T02:55:35.188Z,6.89
2024-03-29T02:56:07.380Z,6.89
2024-03-29T02:56:38.193Z,6.88
2024-03-29T02:57:08.992Z,6.88
2024-03-29T02:57:39.802Z,6.88
2024-03-29T02:58:10.588Z,6.88
2024-03-29T02:58:41.526Z,6.88
2024-03-29T02:59:12.307Z,6.88
2024-03-29T02:59:43.084Z,6.87
2024-03-29T03:00:14.069Z,6.87
2024-03-29T03:00:44.860Z,6.87
2024-03-29T03:01:15.650Z,6.86
2024-03-29T03:01:46.453Z,6.86
2024-03-29T03:02:17.253Z,6.85
2024-03-29T03:02:48.041Z,6.85
2024-03-29T03:03:19.226Z,6.84
2024-03-29T03:03:50.020Z,6.84
2024-03-29T03:04:20.821Z,6.83
2024-03-29T03:04:51.613Z,6.82
2024-03-29T03:05:22.396Z,6.82
2024-03-29T03:05:54.770Z,6.82
2024-03-29T03:06:25.570Z,6.81
2024-03-29T03:07:06.133Z,6.80
2024-03-29T03:07:55.657Z,6.79
2024-03-29T03:08:45.251Z,6.78
2024-03-29T03:09:35.866Z,6.77
2024-03-29T03:10:25.298Z,6.75
2024-03-29T03:10:56.285Z,6.74
2024-03-29T03:11:27.071Z,6.72
2024-03-29T03:11:59.092Z,6.71
2024-03-29T03:12:30.520Z,6.70
2024-03-29T03:13:03.597Z,6.69
2024-03-29T03:13:36.002Z,6.67
2024-03-29T03:14:06.863Z,6.66
2024-03-29T03:14:37.668Z,6.64
2024-03-29T03:15:08.480Z,6.63
2024-03-29T03:15:39.281Z,6.61
2024-03-29T03:16:10.082Z,6.60
2024-03-29T03:16:40.880Z,6.59
2024-03-29T03:17:11.756Z,6.57
2024-03-29T03:17:42.612Z,6.55
2024-03-29T03:18:13.399Z,6.53
2024-03-29T03:18:44.183Z,6.52
2024-03-29T03:19:14.967Z,6.50
2024-03-29T03:19:45.748Z,6.49
2024-03-29T03:20:16.626Z,6.47
2024-03-29T03:20:53.832Z,6.47
2024-03-29T03:21:24.669Z,6.45
2024-03-29T03:21:55.462Z,6.43
2024-03-29T03:22:26.244Z,6.42
2024-03-29T03:22:57.340Z,6.41
2024-03-29T03:23:28.120Z,6.40
2024-03-29T03:23:58.932Z,6.38
2024-03-29T03:24:29.716Z,6.38
2024-03-29T03:25:00.518Z,6.37
2024-03-29T03:25:31.309Z,6.36
2024-03-29T03:26:05.916Z,6.34
2024-03-29T03:26:38.649Z,6.33
2024-03-29T03:27:09.532Z,6.32
2024-03-29T03:27:40.341Z,6.31
2024-03-29T03:28:11.156Z,6.31
2024-03-29T03:28:41.948Z,6.30
2024-03-29T03:29:12.727Z,6.29
2024-03-29T03:29:43.559Z,6.28
2024-03-29T03:30:15.152Z,6.27
2024-03-29T03:30:45.935Z,6.26
2024-03-29T03:31:16.719Z,6.26
2024-03-29T03:31:47.508Z,6.25
2024-03-29T03:32:18.344Z,6.25
2024-03-29T03:32:49.172Z,6.24
2024-03-29T03:33:20.171Z,6.23
2024-03-29T03:33:50.964Z,6.23
2024-03-29T03:34:21.798Z,6.22
2024-03-29T03:34:52.588Z,6.21
2024-03-29T03:35:23.403Z,6.20
2024-03-29T03:35:54.187Z,6.20
2024-03-29T03:36:24.971Z,6.19
2024-03-29T03:36:55.780Z,6.18
2024-03-29T03:37:26.570Z,6.18
2024-03-29T03:37:57.513Z,6.16
2024-03-29T03:38:28.640Z,6.15
2024-03-29T03:38:59.422Z,6.13
2024-03-29T03:39:30.225Z,6.13
2024-03-29T03:40:01.048Z,6.12
2024-03-29T03:40:31.844Z,6.11
2024-03-29T03:41:02.681Z,6.10
2024-03-29T03:41:33.496Z,6.08
2024-03-29T03:42:04.423Z,6.06
2024-03-29T03:42:35.232Z,6.05
2024-03-29T03:43:06.412Z,6.04
2024-03-29T03:43:37.228Z,6.03
2024-03-29T03:44:08.042Z,6.01
2024-03-29T03:44:38.828Z,6.00
2024-03-29T03:45:09.607Z,5.99
2024-03-29T03:45:40.465Z,5.97
2024-03-29T03:46:11.273Z,5.96
2024-03-29T03:46:42.057Z,5.95
2024-03-29T03:47:12.846Z,5.93
2024-03-29T03:47:43.641Z,5.91
2024-03-29T03:48:15.089Z,5.89
2024-03-29T03:48:45.914Z,5.88
2024-03-29T03:49:16.736Z,5.86
2024-03-29T03:49:47.521Z,5.85
2024-03-29T03:50:18.307Z,5.84
2024-03-29T03:50:49.112Z,5.82
2024-03-29T03:51:19.893Z,5.80
2024-03-29T03:51:50.681Z,5.78
2024-03-29T03:52:21.890Z,5.77
2024-03-29T03:52:52.688Z,5.75
2024-03-29T03:53:23.476Z,5.74
2024-03-29T03:53:54.257Z,5.73
2024-03-29T03:54:25.044Z,5.72
2024-03-29T03:54:55.885Z,5.71
2024-03-29T03:55:26.738Z,5.70
2024-03-29T03:55:57.844Z,5.70
2024-03-29T03:56:28.625Z,5.69
2024-03-29T03:56:59.400Z,5.69
2024-03-29T03:57:30.512Z,5.68
2024-03-29T03:58:01.294Z,5.67
2024-03-29T03:58:32.073Z,5.66
2024-03-29T03:59:02.871Z,5.64
2024-03-29T03:59:33.662Z,5.64
2024-03-29T04:00:05.041Z,5.63
2024-03-29T04:00:35.897Z,5.62
2024-03-29T04:01:06.724Z,5.62
2024-03-29T04:01:37.545Z,5.61
2024-03-29T04:02:08.367Z,5.60
2024-03-29T04:02:39.162Z,5.60
2024-03-29T04:03:09.958Z,5.59
2024-03-29T04:03:40.988Z,5.59
2024-03-29T04:04:11.803Z,5.58
2024-03-29T04:04:42.609Z,5.58
2024-03-29T04:05:13.438Z,5.58
2024-03-29T04:05:44.249Z,5.58
2024-03-29T04:06:15.031Z,5.58
2024-03-29T04:06:45.887Z,5.57
2024-03-29T04:07:16.672Z,5.57
2024-03-29T04:07:47.453Z,5.57
2024-03-29T04:08:19.234Z,5.57
2024-03-29T04:08:50.024Z,5.57
2024-03-29T04:09:20.844Z,5.57
2024-03-29T04:09:51.940Z,5.56
2024-03-29T04:10:22.758Z,5.56
2024-03-29T04:10:53.557Z,5.55
2024-03-29T04:11:24.398Z,5.55
2024-03-29T04:11:55.185Z,5.54
2024-03-29T04:12:25.967Z,5.54
2024-03-29T04:12:56.756Z,5.53
2024-03-29T04:13:27.544Z,5.53
2024-03-29T04:13:58.342Z,5.53
2024-03-29T04:14:29.147Z,5.52
2024-03-29T04:14:59.930Z,5.52
2024-03-29T04:15:32.285Z,5.52
2024-03-29T04:16:03.600Z,5.51
2024-03-29T04:16:34.386Z,5.51
2024-03-29T04:17:05.335Z,5.51
2024-03-29T04:17:36.154Z,5.51
2024-03-29T04:18:06.966Z,5.51
2024-03-29T04:18:37.758Z,5.50
2024-03-29T04:19:08.548Z,5.51
2024-03-29T04:19:39.367Z,5.51
2024-03-29T04:20:10.303Z,5.51
2024-03-29T04:20:41.086Z,5.50
2024-03-29T04:21:11.872Z,5.50
2024-03-29T04:21:42.672Z,5.50
2024-03-29T04:22:13.464Z,5.50
2024-03-29T04:22:45.240Z,5.50
2024-03-29T04:23:16.058Z,5.49
2024-03-29T04:23:46.839Z,5.49
2024-03-29T04:24:17.657Z,5.48
2024-03-29T04:24:48.445Z,5.48
2024-03-29T04:25:19.232Z,5.47
2024-03-29T04:25:53.821Z,5.47
2024-03-29T04:26:24.607Z,5.47
2024-03-29T04:26:55.400Z,5.47
2024-03-29T04:27:26.245Z,5.46
2024-03-29T04:27:57.033Z,5.45
2024-03-29T04:28:27.828Z,5.45
2024-03-29T04:28:58.623Z,5.44
2024-03-29T04:29:29.417Z,5.44
2024-03-29T04:30:00.273Z,5.44
2024-03-29T04:30:31.089Z,5.43
2024-03-29T04:31:01.896Z,5.43
2024-03-29T04:31:34.666Z,5.43
2024-03-29T04:32:06.861Z,5.43
2024-03-29T04:32:37.662Z,5.43
2024-03-29T04:33:08.465Z,5.43
2024-03-29T04:33:39.255Z,5.43
2024-03-29T04:34:10.051Z,5.42
2024-03-29T04:34:40.837Z,5.43
2024-03-29T04:35:11.648Z,5.43
2024-03-29T04:35:56.814Z,5.43
2024-03-29T04:36:27.609Z,5.43
2024-03-29T04:36:58.395Z,5.43
2024-03-29T04:37:29.198Z,5.43
2024-03-29T04:37:59.983Z,5.43
2024-03-29T04:38:31.364Z,5.43
2024-03-29T04:39:02.187Z,5.43
2024-03-29T04:39:33.047Z,5.44
2024-03-29T04:40:04.203Z,5.44
2024-03-29T04:40:35.001Z,5.45
2024-03-29T04:41:05.849Z,5.45
2024-03-29T04:41:36.628Z,5.46
2024-03-29T04:42:07.442Z,5.47
2024-03-29T04:42:38.225Z,5.47
2024-03-29T04:43:09.008Z,5.48
2024-03-29T04:43:40.212Z,5.49
2024-03-29T04:44:12.424Z,5.49
2024-03-29T04:44:43.264Z,5.50
2024-03-29T04:45:14.088Z,5.50
2024-03-29T04:45:44.920Z,5.51
2024-03-29T04:46:15.724Z,5.51
2024-03-29T04:46:46.508Z,5.51
2024-03-29T04:47:17.532Z,5.51
2024-03-29T04:47:48.347Z,5.51
2024-03-29T04:48:19.137Z,5.51
2024-03-29T04:48:50.253Z,5.51
2024-03-29T04:49:28.301Z,5.52
2024-03-29T04:49:59.156Z,5.52
2024-03-29T04:50:29.949Z,5.52
2024-03-29T04:51:00.796Z,5.52
2024-03-29T04:51:31.592Z,5.52
2024-03-29T04:52:06.032Z,5.52
2024-03-29T04:52:36.904Z,5.52
2024-03-29T04:53:08.285Z,5.52
2024-03-29T04:53:39.306Z,5.53
2024-03-29T04:54:10.091Z,5.52
2024-03-29T04:54:40.876Z,5.52
2024-03-29T04:55:11.671Z,5.52
2024-03-29T04:55:43.677Z,5.52
2024-03-29T04:56:14.493Z,5.52
2024-03-29T04:56:45.570Z,5.51
2024-03-29T04:57:16.692Z,5.51
2024-03-29T04:57:47.511Z,5.51
2024-03-29T04:58:18.322Z,5.51
2024-03-29T04:58:49.107Z,5.51
2024-03-29T04:59:20.900Z,5.51
2024-03-29T04:59:51.686Z,5.51
2024-03-29T05:00:22.475Z,5.51
2024-03-29T05:00:53.266Z,5.51
2024-03-29T05:01:24.063Z,5.51
2024-03-29T05:01:56.804Z,5.51
2024-03-29T05:02:27.596Z,5.51
2024-03-29T05:02:58.393Z,5.51
2024-03-29T05:03:29.204Z,5.51
2024-03-29T05:04:00.064Z,5.51
2024-03-29T05:04:30.847Z,5.52
2024-03-29T05:05:01.626Z,5.52
2024-03-29T05:05:32.413Z,5.52
2024-03-29T05:06:03.200Z,5.52
2024-03-29T05:06:33.990Z,5.52
2024-03-29T05:07:04.782Z,5.52
2024-03-29T05:07:35.631Z,5.53
2024-03-29T05:08:07.493Z,5.53
2024-03-29T05:08:38.367Z,5.53
2024-03-29T05:09:11.665Z,5.53
2024-03-29T05:09:42.474Z,5.54
2024-03-29T05:10:13.265Z,5.55
2024-03-29T05:10:44.048Z,5.55
2024-03-29T05:11:15.266Z,5.56
2024-03-29T05:11:48.895Z,5.56
2024-03-29T05:12:19.673Z,5.57
2024-03-29T05:12:50.999Z,5.57
2024-03-29T05:13:21.791Z,5.57
2024-03-29T05:13:52.908Z,5.58
2024-03-29T05:14:23.980Z,5.58
2024-03-29T05:14:54.844Z,5.59
2024-03-29T05:15:26.056Z,5.59
2024-03-29T05:15:56.867Z,5.60
2024-03-29T05:16:27.692Z,5.61
2024-03-29T05:16:58.496Z,5.61
2024-03-29T05:17:29.304Z,5.62
2024-03-29T05:18:00.121Z,5.63
2024-03-29T05:18:30.920Z,5.63
2024-03-29T05:19:01.714Z,5.64
2024-03-29T05:19:32.496Z,5.65
2024-03-29T05:20:04.616Z,5.66
2024-03-29T05:20:35.396Z,5.66
2024-03-29T05:21:06.211Z,5.67
2024-03-29T05:21:36.999Z,5.68
2024-03-29T05:22:07.782Z,5.69
2024-03-29T05:22:38.575Z,5.70
2024-03-29T05:23:09.367Z,5.71
2024-03-29T05:23:40.153Z,5.72
2024-03-29T05:24:11.265Z,5.74
2024-03-29T05:24:42.062Z,5.75
2024-03-29T05:25:12.843Z,5.76
2024-03-29T05:25:43.660Z,5.76
2024-03-29T05:26:14.471Z,5.78
2024-03-29T05:26:45.373Z,5.79
2024-03-29T05:27:16.184Z,5.80
2024-03-29T05:27:47.690Z,5.82
2024-03-29T05:28:18.478Z,5.83
2024-03-29T05:28:49.261Z,5.84
2024-03-29T05:29:20.046Z,5.86
2024-03-29T05:29:50.829Z,5.88
2024-03-29T05:30:21.633Z,5.89
2024-03-29T05:30:52.421Z,5.90
2024-03-29T05:31:23.272Z,5.91
2024-03-29T05:31:54.360Z,5.93
2024-03-29T05:32:25.231Z,5.94
2024-03-29T05:32:56.060Z,5.96
2024-03-29T05:33:26.871Z,5.98
2024-03-29T05:33:57.661Z,6.00
2024-03-29T05:34:28.447Z,6.01
2024-03-29T05:34:59.258Z,6.03
2024-03-29T05:35:30.039Z,6.05
2024-03-29T05:36:00.944Z,6.07
2024-03-29T05:36:31.958Z,6.08
2024-03-29T05:37:02.906Z,6.10
2024-03-29T05:37:33.698Z,6.12
2024-03-29T05:38:04.503Z,6.14
2024-03-29T05:38:35.290Z,6.16
2024-03-29T05:39:07.935Z,6.17
2024-03-29T05:39:39.012Z,6.19
2024-03-29T05:40:10.018Z,6.21
2024-03-29T05:40:40.807Z,6.23
2024-03-29T05:41:11.663Z,6.25
2024-03-29T05:41:42.463Z,6.27
2024-03-29T05:42:13.336Z,6.29
2024-03-29T05:42:44.157Z,6.31
2024-03-29T05:43:14.935Z,6.33
2024-03-29T05:43:45.714Z,6.36
2024-03-29T05:44:17.420Z,6.38
2024-03-29T05:44:48.205Z,6.40
2024-03-29T05:45:25.946Z,6.41
2024-03-29T05:45:56.752Z,6.44
2024-03-29T05:46:27.567Z,6.46
2024-03-29T05:46:58.348Z,6.48
2024-03-29T05:47:29.188Z,6.50
2024-03-29T05:48:00.003Z,6.52
2024-03-29T05:48:30.820Z,6.54
2024-03-29T05:49:01.617Z,6.56
2024-03-29T05:49:32.691Z,6.58
2024-03-29T05:50:03.647Z,6.61
2024-03-29T05:50:34.475Z,6.62
2024-03-29T05:51:05.314Z,6.64
2024-03-29T05:51:36.105Z,6.66
2024-03-29T05:52:07.104Z,6.68
2024-03-29T05:52:37.901Z,6.70
2024-03-29T05:53:08.724Z,6.72
2024-03-29T05:53:39.656Z,6.74
2024-03-29T05:54:11.023Z,6.76
2024-03-29T05:54:45.342Z,6.78
2024-03-29T05:55:16.137Z,6.80
2024-03-29T05:55:46.917Z,6.82
2024-03-29T05:56:17.728Z,6.84
2024-03-29T05:56:48.694Z,6.86
2024-03-29T05:57:19.477Z,6.88
2024-03-29T05:57:50.641Z,6.90
2024-03-29T05:58:21.417Z,6.92
2024-03-29T05:58:53.688Z,6.94
2024-03-29T05:59:24.467Z,6.96
2024-03-29T05:59:55.267Z,6.97
2024-03-29T06:00:26.578Z,6.99
2024-03-29T06:00:57.772Z,7.01
2024-03-29T06:01:28.563Z,7.03
2024-03-29T06:01:59.494Z,7.04
2024-03-29T06:02:30.306Z,7.06
2024-03-29T06:03:04.242Z,7.08
2024-03-29T06:03:35.032Z,7.10
2024-03-29T06:04:13.511Z,7.12
2024-03-29T06:04:47.334Z,7.14
2024-03-29T06:05:18.441Z,7.16
2024-03-29T06:05:49.238Z,7.18
2024-03-29T06:06:23.887Z,7.20
2024-03-29T06:06:54.808Z,7.22
2024-03-29T06:07:25.593Z,7.24
2024-03-29T06:07:56.474Z,7.26
2024-03-29T06:08:27.500Z,7.28
2024-03-29T06:08:58.290Z,7.30
2024-03-29T06:09:29.252Z,7.31
2024-03-29T06:10:01.492Z,7.33
2024-03-29T06:10:32.276Z,7.35
2024-03-29T06:11:03.109Z,7.38
2024-03-29T06:11:33.894Z,7.39
2024-03-29T06:12:05.471Z,7.41
2024-03-29T06:12:38.227Z,7.44
2024-03-29T06:13:17.729Z,7.46
2024-03-29T06:13:54.247Z,7.49
2024-03-29T06:14:43.696Z,7.51
2024-03-29T06:15:36.288Z,7.54
2024-03-29T06:16:26.539Z,7.57
2024-03-29T06:17:15.918Z,7.61
2024-03-29T06:17:46.725Z,7.64
2024-03-29T06:18:18.398Z,7.66
2024-03-29T06:18:49.691Z,7.69
2024-03-29T06:19:20.483Z,7.71
2024-03-29T06:19:51.815Z,7.73
2024-03-29T06:20:22.599Z,7.75
2024-03-29T06:20:53.391Z,7.78
2024-03-29T06:21:24.171Z,7.81
2024-03-29T06:21:54.976Z,7.83
2024-03-29T06:22:25.967Z,7.84
2024-03-29T06:22:57.044Z,7.86
2024-03-29T06:23:27.846Z,7.89
2024-03-29T06:23:58.907Z,7.91
2024-03-29T06:24:31.180Z,7.93
2024-03-29T06:25:04.946Z,7.95
2024-03-29T06:25:35.730Z,7.97
2024-03-29T06:26:06.518Z,7.99
2024-03-29T06:26:37.310Z,8.01
2024-03-29T06:27:08.109Z,8.03
2024-03-29T06:27:39.524Z,8.05
2024-03-29T06:28:10.314Z,8.07
2024-03-29T06:28:41.146Z,8.09
2024-03-29T06:29:12.032Z,8.11
2024-03-29T06:29:46.118Z,8.13
2024-03-29T06:30:16.952Z,8.14
2024-03-29T06:30:47.789Z,8.16
2024-03-29T06:31:18.925Z,8.18
2024-03-29T06:31:49.728Z,8.20
2024-03-29T06:32:20.929Z,8.22
2024-03-29T06:32:51.736Z,8.23
2024-03-29T06:33:23.570Z,8.25
2024-03-29T06:33:54.420Z,8.27
2024-03-29T06:34:25.212Z,8.28
2024-03-29T06:34:56.007Z,8.30
2024-03-29T06:35:26.824Z,8.32
2024-03-29T06:35:57.613Z,8.33
2024-03-29T06:36:30.441Z,8.35
2024-03-29T06:37:01.988Z,8.37
2024-03-29T06:37:32.794Z,8.38
2024-03-29T06:38:03.657Z,8.40
2024-03-29T06:38:34.437Z,8.42
2024-03-29T06:39:05.260Z,8.44
2024-03-29T06:39:36.587Z,8.46
2024-03-29T06:40:08.195Z,8.47
2024-03-29T06:40:38.974Z,8.49
2024-03-29T06:41:09.768Z,8.51
2024-03-29T06:41:40.567Z,8.53
2024-03-29T06:42:11.356Z,8.55
2024-03-29T06:42:42.148Z,8.56
2024-03-29T06:43:12.969Z,8.57
2024-03-29T06:43:46.373Z,8.59
2024-03-29T06:44:17.171Z,8.61
2024-03-29T06:44:47.962Z,8.63
2024-03-29T06:45:19.221Z,8.64
2024-03-29T06:45:50.015Z,8.66
2024-03-29T06:46:20.835Z,8.68
2024-03-29T06:46:54.740Z,8.69
2024-03-29T06:47:27.864Z,8.71
2024-03-29T06:48:00.232Z,8.72
2024-03-29T06:48:31.370Z,8.74
2024-03-29T06:49:02.656Z,8.76
2024-03-29T06:49:33.451Z,8.78
2024-03-29T06:50:05.391Z,8.79
2024-03-29T06:50:37.787Z,8.80
2024-03-29T06:51:08.589Z,8.81
2024-03-29T06:51:40.377Z,8.83
2024-03-29T06:52:11.164Z,8.84
2024-03-29T06:52:41.960Z,8.86
2024-03-29T06:53:12.805Z,8.87
2024-03-29T06:53:43.645Z,8.89
2024-03-29T06:54:14.469Z,8.90
2024-03-29T06:54:45.377Z,8.91
2024-03-29T06:55:16.183Z,8.92
2024-03-29T06:55:48.783Z,8.93
2024-03-29T06:56:19.563Z,8.95
2024-03-29T06:56:50.339Z,8.96
2024-03-29T06:57:25.340Z,8.98